DAL3832 KRDU-KCVG
Flight info
| Callsign | DAL3832 |
|---|---|
| Flight time | N/A |
| Altitude | 30000 |
| Route | SHPRD4 SHPRD HMV CUBIM JAKIE7 |
| Aircraft | B738/M-SDE2E3FGHIRWXY/LB1 |
Departure
| Time | 2026-05-07 01:38 |
|---|---|
| Airport | Raleigh-Durham International Airport (KRDU) |
Arrival
| Time | N/A |
|---|---|
| Airport | Cincinnati Northern Kentucky International Airport (KCVG) |
| Time | Latitude | Longitude | Altitude | Speed | Heading |
|---|---|---|---|---|---|
| 2026-05-07 01:06 | 35.87872 | -78.79269 | 389 ft | 0 kts | 134° |
| 2026-05-07 01:10 | 35.87431 | -78.78915 | 425 ft | 0 kts | 333° |
| 2026-05-07 01:25 | 35.87418 | -78.78907 | 420 ft | 4 kts | 338° |
| 2026-05-07 01:25 | 35.87396 | -78.78891 | 416 ft | 4 kts | 318° |
| 2026-05-07 01:26 | 35.87375 | -78.78871 | 415 ft | 4 kts | 328° |
| 2026-05-07 01:26 | 35.87351 | -78.78857 | 418 ft | 4 kts | 351° |
| 2026-05-07 01:26 | 35.87328 | -78.78860 | 421 ft | 3 kts | 43° |
| 2026-05-07 01:26 | 35.87326 | -78.78861 | 425 ft | 1 kts | 45° |
| 2026-05-07 01:28 | 35.87335 | -78.78850 | 417 ft | 5 kts | 45° |
| 2026-05-07 01:29 | 35.87367 | -78.78811 | 426 ft | 9 kts | 44° |
| 2026-05-07 01:29 | 35.87420 | -78.78747 | 428 ft | 13 kts | 45° |
| 2026-05-07 01:29 | 35.87502 | -78.78646 | 432 ft | 19 kts | 45° |
| 2026-05-07 01:29 | 35.87601 | -78.78525 | 434 ft | 20 kts | 45° |
| 2026-05-07 01:30 | 35.87707 | -78.78394 | 429 ft | 23 kts | 45° |
| 2026-05-07 01:30 | 35.87819 | -78.78256 | 436 ft | 22 kts | 45° |
| 2026-05-07 01:30 | 35.87921 | -78.78128 | 438 ft | 16 kts | 45° |
| 2026-05-07 01:30 | 35.87961 | -78.78076 | 435 ft | 0 kts | 56° |
| 2026-05-07 01:37 | 35.87967 | -78.78059 | 437 ft | 9 kts | 72° |
| 2026-05-07 01:37 | 35.87927 | -78.77991 | 442 ft | 12 kts | 163° |
| 2026-05-07 01:37 | 35.87793 | -78.78091 | 429 ft | 55 kts | 224° |
| 2026-05-07 01:37 | 35.87319 | -78.78680 | 427 ft | 136 kts | 226° |
| 2026-05-07 01:38 | 35.86485 | -78.79681 | 615 ft | 188 kts | 223° |
| 2026-05-07 01:38 | 35.85520 | -78.80824 | 1507 ft | 192 kts | 224° |
| 2026-05-07 01:38 | 35.84592 | -78.81935 | 2650 ft | 180 kts | 226° |
| 2026-05-07 01:38 | 35.83713 | -78.83043 | 3403 ft | 183 kts | 228° |
| 2026-05-07 01:39 | 35.82757 | -78.84178 | 3748 ft | 204 kts | 223° |
| 2026-05-07 01:39 | 35.81680 | -78.85376 | 4216 ft | 215 kts | 227° |
| 2026-05-07 01:39 | 35.80635 | -78.86716 | 4878 ft | 217 kts | 230° |
| 2026-05-07 01:39 | 35.79614 | -78.88110 | 5534 ft | 222 kts | 231° |
| 2026-05-07 01:40 | 35.78556 | -78.89528 | 5939 ft | 226 kts | 231° |
| 2026-05-07 01:40 | 35.77474 | -78.90959 | 5948 ft | 232 kts | 231° |
| 2026-05-07 01:40 | 35.76332 | -78.92476 | 5987 ft | 247 kts | 231° |
| 2026-05-07 01:40 | 35.75149 | -78.94051 | 5993 ft | 251 kts | 231° |
| 2026-05-07 01:41 | 35.73962 | -78.95629 | 6004 ft | 250 kts | 231° |
| 2026-05-07 01:41 | 35.72806 | -78.97167 | 6011 ft | 249 kts | 231° |
| 2026-05-07 01:41 | 35.71629 | -78.98737 | 5991 ft | 249 kts | 231° |
| 2026-05-07 01:41 | 35.70456 | -79.00302 | 6005 ft | 249 kts | 231° |
| 2026-05-07 01:42 | 35.69665 | -79.02141 | 6061 ft | 248 kts | 263° |
| 2026-05-07 01:42 | 35.69968 | -79.04233 | 6736 ft | 254 kts | 288° |
| 2026-05-07 01:42 | 35.70731 | -79.06194 | 7638 ft | 256 kts | 297° |
| 2026-05-07 01:42 | 35.71707 | -79.08043 | 8476 ft | 260 kts | 299° |
| 2026-05-07 01:43 | 35.72743 | -79.09907 | 9308 ft | 263 kts | 300° |
| 2026-05-07 01:43 | 35.73774 | -79.11771 | 10109 ft | 266 kts | 299° |
| 2026-05-07 01:43 | 35.74837 | -79.13716 | 10531 ft | 284 kts | 299° |
| 2026-05-07 01:43 | 35.75964 | -79.15807 | 10696 ft | 309 kts | 299° |
| 2026-05-07 01:44 | 35.77191 | -79.18095 | 10879 ft | 331 kts | 299° |
| 2026-05-07 01:44 | 35.78491 | -79.20524 | 11213 ft | 346 kts | 299° |
| 2026-05-07 01:44 | 35.79832 | -79.23036 | 11788 ft | 350 kts | 299° |
| 2026-05-07 01:44 | 35.81162 | -79.25534 | 11956 ft | 350 kts | 299° |
| 2026-05-07 01:45 | 35.82363 | -79.28098 | 11987 ft | 342 kts | 289° |
| 2026-05-07 01:45 | 35.83044 | -79.30908 | 12007 ft | 343 kts | 279° |
| 2026-05-07 01:45 | 35.83280 | -79.33850 | 12276 ft | 347 kts | 268° |
| 2026-05-07 01:45 | 35.83095 | -79.36814 | 12993 ft | 348 kts | 264° |
| 2026-05-07 01:46 | 35.82844 | -79.39804 | 13733 ft | 348 kts | 264° |
| 2026-05-07 01:46 | 35.82593 | -79.42783 | 14339 ft | 351 kts | 264° |
| 2026-05-07 01:46 | 35.82356 | -79.45732 | 14942 ft | 352 kts | 264° |
| 2026-05-07 01:46 | 35.82123 | -79.48747 | 15616 ft | 352 kts | 265° |
| 2026-05-07 01:47 | 35.81892 | -79.51758 | 16238 ft | 354 kts | 265° |
| 2026-05-07 01:47 | 35.81577 | -79.54793 | 16833 ft | 356 kts | 261° |
| 2026-05-07 01:47 | 35.81084 | -79.57779 | 17434 ft | 358 kts | 259° |
| 2026-05-07 01:47 | 35.80563 | -79.60787 | 18040 ft | 359 kts | 259° |
| 2026-05-07 01:48 | 35.80036 | -79.63804 | 18552 ft | 362 kts | 260° |
| 2026-05-07 01:48 | 35.79511 | -79.66816 | 19011 ft | 364 kts | 260° |
| 2026-05-07 01:48 | 35.78981 | -79.69870 | 19507 ft | 365 kts | 260° |
| 2026-05-07 01:48 | 35.78450 | -79.72945 | 19948 ft | 369 kts | 260° |
| 2026-05-07 01:49 | 35.77911 | -79.76077 | 20235 ft | 376 kts | 260° |
| 2026-05-07 01:49 | 35.77368 | -79.79240 | 20628 ft | 379 kts | 260° |
| 2026-05-07 01:49 | 35.76821 | -79.82419 | 21132 ft | 379 kts | 260° |
| 2026-05-07 01:49 | 35.76272 | -79.85603 | 21607 ft | 380 kts | 260° |
| 2026-05-07 01:50 | 35.75724 | -79.88778 | 22076 ft | 380 kts | 260° |
| 2026-05-07 01:50 | 35.75172 | -79.91973 | 22503 ft | 382 kts | 260° |
| 2026-05-07 01:50 | 35.74618 | -79.95172 | 22886 ft | 384 kts | 260° |
| 2026-05-07 01:50 | 35.74060 | -79.98394 | 23286 ft | 386 kts | 260° |
| 2026-05-07 01:51 | 35.73496 | -80.01641 | 23636 ft | 388 kts | 260° |
| 2026-05-07 01:51 | 35.72938 | -80.04854 | 23936 ft | 389 kts | 260° |
| 2026-05-07 01:51 | 35.72363 | -80.08156 | 24320 ft | 389 kts | 259° |
| 2026-05-07 01:51 | 35.71804 | -80.11357 | 24695 ft | 388 kts | 259° |
| 2026-05-07 01:52 | 35.71233 | -80.14620 | 25109 ft | 387 kts | 259° |
| 2026-05-07 01:52 | 35.70667 | -80.17851 | 25600 ft | 384 kts | 259° |
| 2026-05-07 01:52 | 35.70105 | -80.21056 | 26100 ft | 382 kts | 259° |
| 2026-05-07 01:52 | 35.69546 | -80.24240 | 26573 ft | 380 kts | 259° |
| 2026-05-07 01:53 | 35.68987 | -80.27418 | 27024 ft | 378 kts | 259° |
| 2026-05-07 01:53 | 35.68432 | -80.30573 | 27502 ft | 376 kts | 259° |
| 2026-05-07 01:53 | 35.67879 | -80.33709 | 28010 ft | 374 kts | 259° |
| 2026-05-07 01:53 | 35.67328 | -80.36826 | 28481 ft | 372 kts | 259° |
| 2026-05-07 01:54 | 35.66778 | -80.39936 | 28954 ft | 371 kts | 259° |
| 2026-05-07 01:54 | 35.66290 | -80.43039 | 29484 ft | 367 kts | 265° |
| 2026-05-07 01:54 | 35.66346 | -80.46122 | 29990 ft | 366 kts | 275° |
| 2026-05-07 01:55 | 35.67589 | -80.52250 | 29982 ft | 372 kts | 291° |
| 2026-05-07 01:55 | 35.70178 | -80.57753 | 30008 ft | 371 kts | 295° |
| 2026-05-07 01:56 | 35.72843 | -80.63167 | 30001 ft | 372 kts | 295° |
| 2026-05-07 01:56 | 35.75516 | -80.68642 | 29987 ft | 373 kts | 294° |
| 2026-05-07 01:57 | 35.78174 | -80.74135 | 29997 ft | 373 kts | 294° |
| 2026-05-07 01:57 | 35.80828 | -80.79642 | 29994 ft | 373 kts | 294° |
| 2026-05-07 01:58 | 35.83463 | -80.85126 | 30009 ft | 372 kts | 294° |
| 2026-05-07 01:58 | 35.86077 | -80.90574 | 30004 ft | 371 kts | 294° |
| 2026-05-07 01:59 | 35.88696 | -80.96043 | 30004 ft | 370 kts | 294° |
| 2026-05-07 01:59 | 35.91310 | -81.01510 | 29992 ft | 369 kts | 294° |
| 2026-05-07 02:00 | 35.93921 | -81.06981 | 29984 ft | 369 kts | 294° |
| 2026-05-07 02:00 | 35.96503 | -81.12400 | 29971 ft | 369 kts | 294° |
| 2026-05-07 02:01 | 35.99099 | -81.17854 | 29981 ft | 369 kts | 294° |
| 2026-05-07 02:01 | 36.01711 | -81.23355 | 29985 ft | 370 kts | 294° |
| 2026-05-07 02:02 | 36.04323 | -81.28862 | 29986 ft | 371 kts | 294° |
| 2026-05-07 02:02 | 36.06924 | -81.34355 | 29986 ft | 372 kts | 294° |
| 2026-05-07 02:03 | 36.09552 | -81.39913 | 29975 ft | 372 kts | 294° |
| 2026-05-07 02:03 | 36.12183 | -81.45495 | 29979 ft | 383 kts | 294° |
| 2026-05-07 02:04 | 36.14888 | -81.51249 | 29977 ft | 396 kts | 294° |
| 2026-05-07 02:04 | 36.17695 | -81.57219 | 29979 ft | 406 kts | 294° |
| 2026-05-07 02:05 | 36.20562 | -81.63321 | 29983 ft | 414 kts | 294° |
| 2026-05-07 02:05 | 36.23462 | -81.69499 | 29981 ft | 414 kts | 294° |
| 2026-05-07 02:06 | 36.26353 | -81.75671 | 29971 ft | 414 kts | 293° |
| 2026-05-07 02:06 | 36.29233 | -81.81836 | 29967 ft | 412 kts | 293° |
| 2026-05-07 02:07 | 36.32101 | -81.87988 | 29948 ft | 410 kts | 292° |
| 2026-05-07 02:07 | 36.36341 | -81.97107 | 29970 ft | 407 kts | 292° |
| 2026-05-07 02:08 | 36.39152 | -82.03167 | 29963 ft | 404 kts | 292° |
| 2026-05-07 02:08 | 36.41920 | -82.09146 | 29970 ft | 402 kts | 292° |
| 2026-05-07 02:09 | 36.44721 | -82.15131 | 29999 ft | 400 kts | 293° |
| 2026-05-07 02:09 | 36.47695 | -82.20987 | 29993 ft | 400 kts | 294° |
| 2026-05-07 02:10 | 36.50684 | -82.26792 | 30013 ft | 397 kts | 293° |
| 2026-05-07 02:10 | 36.53646 | -82.32601 | 30013 ft | 396 kts | 293° |
| 2026-05-07 02:11 | 36.56085 | -82.37418 | 30015 ft | 396 kts | 293° |
| 2026-05-07 02:11 | 36.59484 | -82.44153 | 30018 ft | 395 kts | 293° |
| 2026-05-07 02:12 | 36.62401 | -82.49945 | 30007 ft | 395 kts | 293° |
| 2026-05-07 02:12 | 36.64840 | -82.54796 | 29988 ft | 394 kts | 293° |
| 2026-05-07 02:13 | 36.67728 | -82.60546 | 29976 ft | 393 kts | 293° |
| 2026-05-07 02:13 | 36.70619 | -82.66314 | 29965 ft | 392 kts | 293° |
| 2026-05-07 02:14 | 36.73507 | -82.72085 | 29969 ft | 390 kts | 292° |
| 2026-05-07 02:14 | 36.76368 | -82.77811 | 29982 ft | 388 kts | 292° |
| 2026-05-07 02:15 | 36.79201 | -82.83494 | 29964 ft | 388 kts | 292° |
| 2026-05-07 02:15 | 36.82051 | -82.89220 | 29968 ft | 387 kts | 293° |
| 2026-05-07 02:16 | 36.84880 | -82.94912 | 29970 ft | 385 kts | 292° |
| 2026-05-07 02:16 | 36.88249 | -83.00236 | 30000 ft | 406 kts | 307° |
| 2026-05-07 02:17 | 36.90621 | -83.02315 | 29975 ft | 428 kts | 319° |
| 2026-05-07 02:17 | 36.93353 | -83.03909 | 29984 ft | 436 kts | 322° |
| 2026-05-07 02:17 | 36.98931 | -83.06917 | 29989 ft | 436 kts | 323° |
| 2026-05-07 02:18 | 37.04377 | -83.10068 | 29992 ft | 427 kts | 317° |
| 2026-05-07 02:18 | 37.09483 | -83.13854 | 29997 ft | 427 kts | 315° |
| 2026-05-07 02:19 | 37.14546 | -83.17702 | 30016 ft | 423 kts | 315° |
| 2026-05-07 02:19 | 37.19586 | -83.21492 | 30012 ft | 420 kts | 315° |
| 2026-05-07 02:20 | 37.24596 | -83.25236 | 30041 ft | 418 kts | 315° |
| 2026-05-07 02:20 | 37.29591 | -83.28966 | 30040 ft | 419 kts | 315° |
| 2026-05-07 02:21 | 37.34625 | -83.32729 | 30033 ft | 421 kts | 315° |
| 2026-05-07 02:21 | 37.39688 | -83.36521 | 30035 ft | 425 kts | 315° |
| 2026-05-07 02:22 | 37.44765 | -83.40325 | 30028 ft | 427 kts | 315° |
| 2026-05-07 02:22 | 37.49911 | -83.44187 | 30034 ft | 430 kts | 315° |
| 2026-05-07 02:23 | 37.54952 | -83.47954 | 30011 ft | 410 kts | 315° |
| 2026-05-07 02:23 | 37.57366 | -83.49742 | 29996 ft | 393 kts | 314° |
| 2026-05-07 02:23 | 37.59680 | -83.51461 | 30006 ft | 377 kts | 313° |
| 2026-05-07 02:24 | 37.61896 | -83.53117 | 30010 ft | 362 kts | 313° |
| 2026-05-07 02:24 | 37.64036 | -83.54730 | 30003 ft | 355 kts | 312° |
| 2026-05-07 02:24 | 37.68133 | -83.57831 | 30008 ft | 331 kts | 311° |
| 2026-05-07 02:25 | 37.70074 | -83.59292 | 30000 ft | 318 kts | 310° |
| 2026-05-07 02:25 | 37.71932 | -83.60692 | 30005 ft | 305 kts | 309° |
| 2026-05-07 02:25 | 37.73697 | -83.62023 | 30000 ft | 292 kts | 309° |
| 2026-05-07 02:25 | 37.75418 | -83.63321 | 30000 ft | 278 kts | 308° |
| 2026-05-07 02:26 | 37.77054 | -83.64565 | 30005 ft | 274 kts | 307° |
| 2026-05-07 02:26 | 37.78685 | -83.65833 | 30039 ft | 284 kts | 308° |
| 2026-05-07 02:26 | 37.80396 | -83.67171 | 29877 ft | 294 kts | 308° |
| 2026-05-07 02:26 | 37.82168 | -83.68545 | 29253 ft | 303 kts | 309° |
| 2026-05-07 02:27 | 37.83986 | -83.69939 | 28720 ft | 307 kts | 310° |
| 2026-05-07 02:27 | 37.85821 | -83.71331 | 28326 ft | 306 kts | 310° |
| 2026-05-07 02:27 | 37.87651 | -83.72713 | 27919 ft | 306 kts | 310° |
| 2026-05-07 02:27 | 37.89483 | -83.74102 | 27376 ft | 309 kts | 311° |
| 2026-05-07 02:28 | 37.91342 | -83.75517 | 26915 ft | 311 kts | 311° |
| 2026-05-07 02:28 | 37.93189 | -83.76920 | 26522 ft | 310 kts | 311° |
| 2026-05-07 02:28 | 37.95045 | -83.78330 | 26078 ft | 311 kts | 311° |
| 2026-05-07 02:28 | 37.96910 | -83.79754 | 25573 ft | 314 kts | 311° |
| 2026-05-07 02:29 | 37.98793 | -83.81192 | 25110 ft | 317 kts | 312° |
| 2026-05-07 02:29 | 38.00667 | -83.82621 | 24690 ft | 318 kts | 312° |
| 2026-05-07 02:29 | 38.02567 | -83.84072 | 24212 ft | 320 kts | 313° |
| 2026-05-07 02:29 | 38.04483 | -83.85537 | 23744 ft | 323 kts | 313° |
| 2026-05-07 02:30 | 38.06411 | -83.87011 | 23233 ft | 325 kts | 313° |
| 2026-05-07 02:30 | 38.08351 | -83.88494 | 22696 ft | 326 kts | 313° |
| 2026-05-07 02:30 | 38.10304 | -83.89986 | 22255 ft | 325 kts | 314° |
| 2026-05-07 02:30 | 38.12234 | -83.91458 | 21892 ft | 322 kts | 314° |
| 2026-05-07 02:31 | 38.14144 | -83.92917 | 21510 ft | 320 kts | 314° |
| 2026-05-07 02:31 | 38.16046 | -83.94372 | 21109 ft | 318 kts | 314° |
| 2026-05-07 02:31 | 38.17949 | -83.95832 | 20726 ft | 317 kts | 314° |
| 2026-05-07 02:31 | 38.19826 | -83.97274 | 20347 ft | 316 kts | 314° |
| 2026-05-07 02:32 | 38.21675 | -83.98694 | 19988 ft | 314 kts | 314° |
| 2026-05-07 02:32 | 38.23562 | -84.00145 | 19631 ft | 312 kts | 314° |
| 2026-05-07 02:32 | 38.25391 | -84.01550 | 19293 ft | 310 kts | 314° |
| 2026-05-07 02:32 | 38.27236 | -84.02968 | 18941 ft | 308 kts | 314° |
| 2026-05-07 02:33 | 38.29067 | -84.04377 | 18603 ft | 307 kts | 314° |
| 2026-05-07 02:33 | 38.30884 | -84.05778 | 18264 ft | 305 kts | 314° |
| 2026-05-07 02:33 | 38.32698 | -84.07178 | 17857 ft | 304 kts | 314° |
| 2026-05-07 02:33 | 38.34498 | -84.08569 | 17487 ft | 302 kts | 315° |
| 2026-05-07 02:34 | 38.36298 | -84.09960 | 17130 ft | 300 kts | 315° |
| 2026-05-07 02:34 | 38.38077 | -84.11335 | 16762 ft | 298 kts | 315° |
| 2026-05-07 02:34 | 38.39841 | -84.12700 | 16392 ft | 297 kts | 316° |
| 2026-05-07 02:34 | 38.41584 | -84.14050 | 16036 ft | 295 kts | 316° |
| 2026-05-07 02:35 | 38.43338 | -84.15406 | 15702 ft | 293 kts | 317° |
| 2026-05-07 02:35 | 38.45108 | -84.16715 | 15318 ft | 295 kts | 319° |
| 2026-05-07 02:35 | 38.46896 | -84.17999 | 15007 ft | 293 kts | 319° |
| 2026-05-07 02:35 | 38.48666 | -84.19268 | 14704 ft | 291 kts | 320° |
| 2026-05-07 02:36 | 38.50420 | -84.20532 | 14370 ft | 289 kts | 320° |
| 2026-05-07 02:36 | 38.52154 | -84.21784 | 13950 ft | 285 kts | 320° |
| 2026-05-07 02:36 | 38.53875 | -84.23032 | 13335 ft | 284 kts | 320° |
| 2026-05-07 02:36 | 38.55579 | -84.24270 | 12702 ft | 285 kts | 320° |
| 2026-05-07 02:37 | 38.57304 | -84.25523 | 12127 ft | 283 kts | 321° |
| 2026-05-07 02:37 | 38.59015 | -84.26765 | 11534 ft | 283 kts | 321° |
| 2026-05-07 02:37 | 38.60714 | -84.27998 | 11142 ft | 279 kts | 321° |
| 2026-05-07 02:37 | 38.62400 | -84.29223 | 10795 ft | 278 kts | 320° |
| 2026-05-07 02:38 | 38.63828 | -84.30757 | 10467 ft | 261 kts | 299° |
| 2026-05-07 02:38 | 38.64656 | -84.32757 | 10267 ft | 248 kts | 284° |
| 2026-05-07 02:38 | 38.64963 | -84.34815 | 10180 ft | 234 kts | 271° |
| 2026-05-07 02:38 | 38.65003 | -84.36859 | 10081 ft | 225 kts | 268° |
| 2026-05-07 02:39 | 38.64999 | -84.38831 | 9928 ft | 219 kts | 268° |
| 2026-05-07 02:39 | 38.64994 | -84.40782 | 9663 ft | 218 kts | 268° |
| 2026-05-07 02:39 | 38.65001 | -84.42719 | 9317 ft | 220 kts | 269° |
| 2026-05-07 02:39 | 38.65028 | -84.44703 | 8859 ft | 226 kts | 270° |
| 2026-05-07 02:40 | 38.65064 | -84.46747 | 8439 ft | 231 kts | 270° |
| 2026-05-07 02:40 | 38.65180 | -84.48801 | 8165 ft | 230 kts | 273° |
| 2026-05-07 02:40 | 38.65263 | -84.50135 | 8004 ft | 232 kts | 273° |
| 2026-05-07 02:40 | 38.65376 | -84.52243 | 7681 ft | 242 kts | 272° |
| 2026-05-07 02:41 | 38.65470 | -84.54391 | 7537 ft | 246 kts | 272° |
| 2026-05-07 02:41 | 38.65563 | -84.56542 | 7683 ft | 237 kts | 272° |
| 2026-05-07 02:41 | 38.66005 | -84.58567 | 7404 ft | 250 kts | 300° |
| 2026-05-07 02:41 | 38.67299 | -84.60236 | 6860 ft | 274 kts | 324° |
| 2026-05-07 02:42 | 38.69061 | -84.61131 | 6855 ft | 273 kts | 347° |
| 2026-05-07 02:42 | 38.70922 | -84.61298 | 7044 ft | 264 kts | 356° |
| 2026-05-07 02:42 | 38.72775 | -84.61217 | 6787 ft | 271 kts | 0° |
| 2026-05-07 02:42 | 38.74671 | -84.61077 | 6422 ft | 281 kts | 360° |
| 2026-05-07 02:43 | 38.76627 | -84.61196 | 6214 ft | 281 kts | 351° |
| 2026-05-07 02:43 | 38.78506 | -84.61657 | 6066 ft | 272 kts | 342° |
| 2026-05-07 02:43 | 38.80327 | -84.62358 | 5721 ft | 272 kts | 341° |
| 2026-05-07 02:43 | 38.82072 | -84.63039 | 5692 ft | 252 kts | 341° |
| 2026-05-07 02:44 | 38.83715 | -84.63626 | 5498 ft | 239 kts | 343° |